Time;durP1;ratioP1;P1;durP2;ratioP2;P2;SDS_P1;SDS_P2;PMS_P1;PMS_P2;Temp;Humidity;BMP_temperature;BMP_pressure;BME280_temperature;BME280_humidity;BME280_pressure;Samples;Min_cycle;Max_cycle;Signal;HPM_P1;HPM_P2
2023/04/22 00:01:18;;;;;;;7.13;4.43;;;11.70;99.90;;;;;;4928566;29;20395;-63
2023/04/22 00:03:43;;;;;;;7.88;4.68;;;11.60;99.90;;;;;;4926666;29;20384;-63
2023/04/22 00:06:10;;;;;;;6.30;4.38;;;11.60;99.90;;;;;;4926389;29;20058;-63
2023/04/22 00:08:36;;;;;;;6.13;3.60;;;11.50;99.90;;;;;;4928459;29;20499;-63
2023/04/22 00:11:02;;;;;;;6.13;3.72;;;11.50;99.90;;;;;;4923410;29;20110;-64
2023/04/22 00:13:28;;;;;;;6.22;4.07;;;11.40;99.90;;;;;;4923974;29;20150;-63
2023/04/22 00:15:53;;;;;;;5.50;3.67;;;11.40;99.90;;;;;;4923717;29;20055;-63
2023/04/22 00:18:20;;;;;;;5.90;4.00;;;11.40;99.90;;;;;;4928124;29;20194;-63
2023/04/22 00:20:45;;;;;;;6.05;4.20;;;11.40;99.90;;;;;;4929363;29;20048;-63
2023/04/22 00:23:12;;;;;;;6.60;4.22;;;11.40;99.90;;;;;;4929106;29;20451;-63
2023/04/22 00:25:38;;;;;;;6.93;4.28;;;11.30;99.90;;;;;;4931273;29;20054;-63
2023/04/22 00:28:04;;;;;;;6.75;4.60;;;11.30;99.90;;;;;;4931714;29;20139;-63
2023/04/22 00:30:30;;;;;;;6.68;4.50;;;11.30;99.90;;;;;;4934509;29;20122;-63
2023/04/22 00:32:55;;;;;;;6.03;4.07;;;11.20;99.90;;;;;;4935536;29;20055;-64
2023/04/22 00:35:21;;;;;;;6.18;4.13;;;11.20;99.90;;;;;;4935461;29;20055;-63
2023/04/22 00:37:47;;;;;;;7.32;4.15;;;11.10;99.90;;;;;;4934426;29;20039;-63
2023/04/22 00:40:12;;;;;;;6.47;4.75;;;11.10;99.90;;;;;;4923750;29;20439;-63
2023/04/22 00:42:38;;;;;;;9.15;3.83;;;11.10;99.90;;;;;;4933019;29;20048;-63
2023/04/22 00:45:08;;;;;;;5.97;4.03;;;11.10;99.90;;;;;;4934784;29;20071;-64
2023/04/22 00:47:35;;;;;;;6.75;3.80;;;11.00;99.90;;;;;;4931966;29;20059;-63
2023/04/22 00:50:01;;;;;;;5.60;3.60;;;11.00;99.90;;;;;;4930622;29;20483;-63
2023/04/22 00:52:26;;;;;;;6.25;4.30;;;10.90;99.90;;;;;;4932655;29;20048;-63
2023/04/22 00:54:52;;;;;;;5.32;3.65;;;10.90;99.90;;;;;;4934697;29;20321;-63
2023/04/22 00:57:18;;;;;;;6.53;4.07;;;10.80;99.90;;;;;;4933366;29;20078;-63
2023/04/22 00:59:44;;;;;;;5.93;4.30;;;10.80;99.90;;;;;;4931704;29;20131;-63
2023/04/22 01:02:10;;;;;;;7.00;4.07;;;10.80;99.90;;;;;;4930746;29;20051;-63
2023/04/22 01:04:36;;;;;;;8.95;3.95;;;10.70;99.90;;;;;;4932378;29;20042;-63
2023/04/22 01:07:02;;;;;;;4.97;3.42;;;10.60;99.90;;;;;;4931901;29;20052;-63
2023/04/22 01:09:28;;;;;;;6.35;4.03;;;10.60;99.90;;;;;;4929276;29;20039;-64
2023/04/22 01:11:55;;;;;;;6.25;4.45;;;10.60;99.90;;;;;;4929258;29;20040;-64
2023/04/22 01:14:21;;;;;;;10.05;5.18;;;10.50;99.90;;;;;;4929832;29;20063;-64
2023/04/22 01:16:47;;;;;;;6.60;4.38;;;10.50;99.90;;;;;;4927249;29;20487;-65
2023/04/22 01:19:12;;;;;;;16.55;5.22;;;10.50;99.90;;;;;;4931894;29;20127;-64
2023/04/22 01:21:39;;;;;;;46.53;5.38;;;10.50;99.90;;;;;;4931597;29;20044;-64
2023/04/22 01:24:06;;;;;;;11.23;4.00;;;10.40;99.90;;;;;;4928309;29;20055;-64
2023/04/22 01:26:32;;;;;;;19.60;4.30;;;10.40;99.90;;;;;;4927974;29;20198;-65
2023/04/22 01:28:58;;;;;;;14.52;3.85;;;10.40;99.90;;;;;;4925096;29;20051;-64
2023/04/22 01:31:23;;;;;;;5.72;3.97;;;10.30;99.90;;;;;;4925570;29;20359;-64
2023/04/22 01:33:49;;;;;;;6.60;4.72;;;10.30;99.90;;;;;;4926469;29;20048;-64
2023/04/22 01:36:16;;;;;;;6.63;4.28;;;10.20;99.90;;;;;;4928368;29;20619;-64
2023/04/22 01:38:41;;;;;;;6.90;4.47;;;10.20;99.90;;;;;;4926972;29;20043;-64
2023/04/22 01:41:07;;;;;;;5.38;3.70;;;10.20;99.90;;;;;;4927520;29;20070;-64
2023/04/22 01:43:33;;;;;;;6.47;3.75;;;10.20;99.90;;;;;;4926408;29;20603;-64
2023/04/22 01:46:00;;;;;;;6.03;4.32;;;10.10;99.90;;;;;;4925368;29;20039;-64
2023/04/22 01:48:26;;;;;;;5.80;4.10;;;10.10;99.90;;;;;;4924156;29;20117;-64
2023/04/22 01:50:51;;;;;;;7.07;4.35;;;10.10;99.90;;;;;;4926181;29;20483;-64
2023/04/22 01:53:17;;;;;;;6.72;4.65;;;10.00;99.90;;;;;;4927840;29;20055;-65
2023/04/22 01:55:43;;;;;;;8.43;5.40;;;10.00;99.90;;;;;;4926637;29;20419;-64
2023/04/22 01:58:09;;;;;;;9.43;5.80;;;10.00;99.90;;;;;;4928172;29;20055;-64
2023/04/22 02:00:35;;;;;;;8.55;6.38;;;10.00;99.90;;;;;;4925837;29;20103;-64
2023/04/22 02:03:00;;;;;;;9.32;6.07;;;9.90;99.90;;;;;;4926570;29;20189;-64
2023/04/22 02:05:26;;;;;;;10.68;6.07;;;9.90;99.90;;;;;;4927202;29;20050;-64
2023/04/22 02:07:53;;;;;;;22.75;6.45;;;9.90;99.90;;;;;;4926016;29;20039;-64
2023/04/22 02:10:19;;;;;;;13.30;5.60;;;9.90;99.90;;;;;;4926146;29;20044;-64
2023/04/22 02:12:45;;;;;;;22.42;6.05;;;9.90;99.90;;;;;;4927914;29;20047;-64
2023/04/22 02:15:10;;;;;;;14.73;5.80;;;9.80;99.90;;;;;;4926058;29;20044;-64
2023/04/22 02:17:37;;;;;;;6.32;5.03;;;9.80;99.90;;;;;;4923744;29;20039;-64
2023/04/22 02:20:03;;;;;;;7.72;5.07;;;9.80;99.90;;;;;;4924991;29;20044;-64
2023/04/22 02:22:30;;;;;;;6.85;4.75;;;9.70;99.90;;;;;;4930044;29;20502;-64
2023/04/22 02:24:55;;;;;;;8.80;6.82;;;9.70;99.90;;;;;;4931844;29;20054;-64
2023/04/22 02:27:21;;;;;;;9.98;7.22;;;9.70;99.90;;;;;;4930750;29;20032;-65
2023/04/22 02:29:47;;;;;;;10.98;8.20;;;9.70;99.90;;;;;;4932572;29;20043;-64
2023/04/22 02:32:13;;;;;;;9.45;7.72;;;9.70;99.90;;;;;;4927701;29;20055;-64
2023/04/22 02:34:38;;;;;;;10.02;7.82;;;9.70;99.90;;;;;;4931495;29;20058;-63
2023/04/22 02:37:04;;;;;;;8.90;7.07;;;9.70;99.90;;;;;;4931295;29;20460;-63
2023/04/22 02:39:30;;;;;;;8.38;6.50;;;9.70;99.90;;;;;;4929416;29;20036;-64
2023/04/22 02:41:55;;;;;;;8.40;6.68;;;9.60;99.90;;;;;;4929511;29;20051;-63
2023/04/22 02:44:21;;;;;;;8.07;5.88;;;9.60;99.90;;;;;;4933234;29;20058;-63
2023/04/22 02:46:46;;;;;;;8.95;6.15;;;9.60;99.90;;;;;;4929288;29;20051;-64
2023/04/22 02:49:12;;;;;;;7.85;6.00;;;9.50;99.90;;;;;;4928284;29;20505;-64
2023/04/22 02:51:38;;;;;;;9.32;6.97;;;9.50;99.90;;;;;;4930342;29;20182;-64
2023/04/22 02:54:04;;;;;;;7.57;5.82;;;9.50;99.90;;;;;;4931001;29;20036;-64
2023/04/22 02:56:30;;;;;;;9.27;7.15;;;9.50;99.90;;;;;;4931208;29;20454;-64
2023/04/22 02:58:56;;;;;;;9.27;7.43;;;9.50;99.90;;;;;;4930334;29;20044;-64
2023/04/22 03:01:21;;;;;;;9.32;6.95;;;9.40;99.90;;;;;;4932497;29;20044;-64
2023/04/22 03:03:47;;;;;;;9.63;7.20;;;9.40;99.90;;;;;;4924317;29;20387;-64
2023/04/22 03:06:13;;;;;;;10.77;7.15;;;9.40;99.90;;;;;;4927855;29;20050;-64
2023/04/22 03:08:38;;;;;;;8.23;6.28;;;9.40;99.90;;;;;;4925459;29;20055;-64
2023/04/22 03:11:04;;;;;;;10.77;7.28;;;9.40;99.90;;;;;;4924030;29;20066;-64
2023/04/22 03:13:30;;;;;;;15.25;7.43;;;9.30;99.90;;;;;;4923556;29;20135;-65
2023/04/22 03:15:55;;;;;;;8.02;6.40;;;9.30;99.90;;;;;;4926022;29;20054;-65
2023/04/22 03:18:21;;;;;;;8.73;6.40;;;9.30;99.90;;;;;;4922680;29;20411;-64
2023/04/22 03:20:46;;;;;;;9.25;7.22;;;9.20;99.90;;;;;;4923109;29;20066;-65
2023/04/22 03:23:12;;;;;;;9.70;7.55;;;9.20;99.90;;;;;;4924900;29;20451;-65
2023/04/22 03:25:37;;;;;;;9.35;7.55;;;9.30;99.90;;;;;;4923199;29;20075;-64
2023/04/22 03:28:03;;;;;;;9.82;8.10;;;9.20;99.90;;;;;;4922562;29;20748;-64
2023/04/22 03:30:29;;;;;;;12.32;8.18;;;9.20;99.90;;;;;;4925836;29;20039;-65
2023/04/22 03:32:55;;;;;;;9.30;7.20;;;9.20;99.90;;;;;;4926014;29;20055;-65
2023/04/22 03:35:21;;;;;;;9.25;7.20;;;9.10;99.90;;;;;;4924308;29;20039;-64
2023/04/22 03:37:46;;;;;;;13.90;7.95;;;9.10;99.90;;;;;;4922496;29;20574;-65
2023/04/22 03:40:12;;;;;;;10.80;7.50;;;9.00;99.90;;;;;;4922505;29;20086;-65
2023/04/22 03:42:37;;;;;;;9.25;7.63;;;9.10;99.90;;;;;;4925280;29;20039;-65
2023/04/22 03:45:03;;;;;;;9.13;7.28;;;9.00;99.90;;;;;;4924585;29;20440;-64
2023/04/22 03:47:29;;;;;;;10.32;8.13;;;9.00;99.90;;;;;;4921307;29;20097;-65
2023/04/22 03:49:54;;;;;;;10.05;7.80;;;9.00;99.90;;;;;;4918613;29;20137;-65
2023/04/22 03:52:20;;;;;;;10.32;7.45;;;9.00;99.90;;;;;;4925262;29;20036;-65
2023/04/22 03:54:46;;;;;;;9.60;8.00;;;9.00;99.90;;;;;;4923771;29;20043;-65
2023/04/22 03:57:11;;;;;;;11.75;9.15;;;9.00;99.90;;;;;;4924350;29;20505;-64
2023/04/22 03:59:37;;;;;;;10.98;8.63;;;9.00;99.90;;;;;;4922815;29;20039;-65
2023/04/22 04:02:02;;;;;;;11.73;9.07;;;9.00;99.90;;;;;;4926229;29;20051;-65
2023/04/22 04:04:28;;;;;;;11.80;8.98;;;9.00;99.90;;;;;;4928347;29;20056;-65
2023/04/22 04:06:55;;;;;;;11.50;8.50;;;9.00;99.90;;;;;;4927103;29;20794;-64
2023/04/22 04:09:20;;;;;;;11.50;8.38;;;9.10;99.90;;;;;;4926599;29;20233;-64
2023/04/22 04:11:46;;;;;;;11.10;9.00;;;9.10;99.90;;;;;;4928607;29;20456;-65
2023/04/22 04:14:12;;;;;;;11.43;8.35;;;9.10;99.90;;;;;;4927640;29;20059;-64
2023/04/22 04:16:37;;;;;;;10.73;8.57;;;9.00;99.90;;;;;;4929422;29;20050;-64
2023/04/22 04:19:03;;;;;;;10.02;7.82;;;9.00;99.90;;;;;;4926727;29;20058;-64
2023/04/22 04:21:28;;;;;;;9.57;7.80;;;9.00;99.90;;;;;;4930459;29;20134;-64
2023/04/22 04:23:54;;;;;;;11.65;9.02;;;9.00;99.90;;;;;;4931792;29;20451;-64
2023/04/22 04:26:20;;;;;;;10.35;8.07;;;9.00;99.90;;;;;;4934959;29;20176;-65
2023/04/22 04:28:46;;;;;;;11.57;8.40;;;9.00;99.90;;;;;;4936449;29;20503;-64
2023/04/22 04:31:11;;;;;;;10.65;8.25;;;9.00;99.90;;;;;;4933586;29;20515;-64
2023/04/22 04:33:38;;;;;;;12.00;8.60;;;9.00;99.90;;;;;;4934967;29;20043;-64
2023/04/22 04:36:04;;;;;;;11.57;8.90;;;9.00;99.90;;;;;;4931090;29;20063;-64
2023/04/22 04:38:30;;;;;;;11.13;8.65;;;8.90;99.90;;;;;;4933170;29;20043;-63
2023/04/22 04:40:55;;;;;;;11.35;9.50;;;8.90;99.90;;;;;;4934969;29;20441;-63
2023/04/22 04:43:24;;;;;;;13.68;10.07;;;8.90;99.90;;;;;;4932332;29;20044;-64
2023/04/22 04:45:50;;;;;;;10.73;8.68;;;8.90;99.90;;;;;;4931118;29;20055;-64
2023/04/22 04:48:18;;;;;;;13.43;8.00;;;8.90;99.90;;;;;;4931062;29;20111;-64
2023/04/22 04:50:44;;;;;;;10.93;7.63;;;8.90;99.90;;;;;;4933460;29;20051;-63
2023/04/22 04:53:10;;;;;;;10.23;7.50;;;8.90;99.90;;;;;;4935465;29;20080;-64
2023/04/22 04:55:36;;;;;;;9.90;8.00;;;8.90;99.90;;;;;;4916933;29;20048;-64
2023/04/22 04:58:02;;;;;;;9.70;7.90;;;8.90;99.90;;;;;;4932289;29;20055;-64
2023/04/22 05:00:28;;;;;;;10.25;7.65;;;8.80;99.90;;;;;;4933885;29;20110;-65
2023/04/22 05:02:53;;;;;;;10.85;7.78;;;8.80;99.90;;;;;;4935808;29;20048;-65
2023/04/22 05:05:19;;;;;;;12.43;9.70;;;8.90;99.90;;;;;;4935610;29;20047;-65
2023/04/22 05:07:45;;;;;;;10.85;8.50;;;8.80;99.90;;;;;;4935964;29;20501;-65
2023/04/22 05:10:10;;;;;;;11.80;9.32;;;8.90;99.90;;;;;;4934838;29;20043;-65
2023/04/22 05:12:36;;;;;;;12.90;9.00;;;8.90;99.90;;;;;;4933240;29;20043;-65
2023/04/22 05:15:02;;;;;;;12.45;9.98;;;8.90;99.90;;;;;;4935291;29;20156;-65
2023/04/22 05:17:28;;;;;;;11.23;8.85;;;8.90;99.90;;;;;;4934415;29;20051;-65
2023/04/22 05:19:53;;;;;;;12.05;8.95;;;9.00;99.90;;;;;;4933526;29;20040;-65
2023/04/22 05:22:19;;;;;;;11.38;9.30;;;9.00;99.90;;;;;;4935153;29;20161;-65
2023/04/22 05:24:44;;;;;;;13.02;10.48;;;9.10;99.90;;;;;;4934578;29;20035;-65
2023/04/22 05:27:10;;;;;;;12.73;10.35;;;9.20;99.90;;;;;;4934028;29;20135;-65
2023/04/22 05:29:36;;;;;;;14.05;11.75;;;9.20;99.90;;;;;;4934021;29;20094;-65
2023/04/22 05:32:02;;;;;;;14.95;12.23;;;9.30;99.90;;;;;;4933752;29;20055;-65
2023/04/22 05:34:27;;;;;;;16.35;13.18;;;9.40;99.90;;;;;;4934568;29;20566;-65
2023/04/22 05:36:53;;;;;;;16.77;12.57;;;9.40;99.90;;;;;;4934923;29;20494;-65
2023/04/22 05:39:19;;;;;;;17.63;12.70;;;9.50;99.90;;;;;;4935009;29;20070;-65
2023/04/22 05:41:45;;;;;;;17.27;13.98;;;9.60;99.90;;;;;;4930635;29;20059;-65
2023/04/22 05:44:10;;;;;;;16.58;13.68;;;9.60;99.90;;;;;;4930224;29;20115;-65
2023/04/22 05:46:36;;;;;;;14.68;11.90;;;9.70;99.90;;;;;;4930090;29;20106;-66
2023/04/22 05:49:02;;;;;;;15.98;13.05;;;9.80;99.90;;;;;;4928650;29;20499;-65
2023/04/22 05:51:27;;;;;;;17.13;13.20;;;9.80;99.90;;;;;;4933300;29;20079;-65
2023/04/22 05:53:53;;;;;;;15.88;13.07;;;9.90;99.90;;;;;;4928392;29;20182;-65
2023/04/22 05:56:20;;;;;;;17.75;13.30;;;9.90;99.90;;;;;;4932442;29;20533;-65
2023/04/22 05:58:46;;;;;;;18.42;14.10;;;10.00;99.90;;;;;;4932787;29;20054;-65
2023/04/22 06:01:12;;;;;;;16.05;13.65;;;10.10;99.90;;;;;;4924699;29;20371;-65
2023/04/22 06:03:37;;;;;;;16.98;14.70;;;10.10;99.90;;;;;;4930917;29;20407;-65
2023/04/22 06:06:03;;;;;;;17.95;14.10;;;10.20;99.90;;;;;;4930194;29;20065;-65
2023/04/22 06:08:30;;;;;;;15.77;13.30;;;10.30;99.90;;;;;;4932459;29;20040;-66
2023/04/22 06:10:56;;;;;;;16.98;13.52;;;10.40;99.90;;;;;;4930741;29;20039;-64
2023/04/22 06:13:21;;;;;;;16.90;13.20;;;10.50;99.90;;;;;;4932069;29;20203;-64
2023/04/22 06:15:47;;;;;;;18.15;14.70;;;10.60;99.90;;;;;;4930052;29;20056;-65
2023/04/22 06:18:12;;;;;;;18.13;14.13;;;10.60;99.90;;;;;;4925404;29;20051;-65
2023/04/22 06:20:38;;;;;;;17.33;14.07;;;10.70;99.90;;;;;;4931023;29;20040;-65
2023/04/22 06:23:04;;;;;;;17.38;14.20;;;10.70;99.90;;;;;;4926437;28;20051;-65
2023/04/22 06:25:31;;;;;;;17.52;14.02;;;10.80;99.90;;;;;;4923161;29;20054;-66
2023/04/22 06:27:58;;;;;;;18.13;14.50;;;10.90;99.90;;;;;;4926208;29;20059;-65
2023/04/22 06:30:24;;;;;;;17.42;14.00;;;10.90;99.90;;;;;;4926314;29;20423;-64
2023/04/22 06:32:51;;;;;;;18.15;15.05;;;11.00;99.90;;;;;;4923512;29;20127;-66
2023/04/22 06:35:17;;;;;;;17.40;14.07;;;11.10;99.90;;;;;;4926013;29;20032;-65
2023/04/22 06:37:42;;;;;;;17.10;14.68;;;11.10;99.90;;;;;;4925999;29;20114;-65
2023/04/22 06:40:09;;;;;;;18.73;15.32;;;11.20;99.90;;;;;;4925052;29;20047;-65
2023/04/22 06:42:34;;;;;;;17.75;14.27;;;11.20;99.90;;;;;;4928106;29;20435;-65
2023/04/22 06:45:00;;;;;;;16.75;14.32;;;11.30;99.90;;;;;;4931872;29;20051;-65
2023/04/22 06:47:25;;;;;;;17.55;14.13;;;11.40;99.90;;;;;;4928942;29;20470;-65
2023/04/22 06:49:52;;;;;;;18.73;15.48;;;11.40;99.90;;;;;;4931901;29;20036;-64
2023/04/22 06:52:17;;;;;;;18.05;15.13;;;11.50;99.90;;;;;;4932906;29;20051;-65
2023/04/22 06:54:43;;;;;;;18.30;13.90;;;11.50;99.90;;;;;;4929976;29;20052;-65
2023/04/22 06:57:08;;;;;;;17.05;13.65;;;11.60;99.90;;;;;;4930061;29;20047;-65
2023/04/22 06:59:34;;;;;;;19.50;15.80;;;11.60;99.90;;;;;;4927439;29;20040;-65
2023/04/22 07:02:00;;;;;;;16.98;14.82;;;11.70;99.90;;;;;;4931493;29;20150;-66
2023/04/22 07:04:26;;;;;;;18.17;14.90;;;11.80;99.90;;;;;;4933372;29;20064;-65
2023/04/22 07:06:52;;;;;;;18.08;15.50;;;11.90;99.90;;;;;;4931034;29;20040;-66
2023/04/22 07:09:18;;;;;;;19.50;15.93;;;12.00;99.90;;;;;;4933028;29;20051;-65
2023/04/22 07:11:43;;;;;;;18.67;15.55;;;12.10;99.90;;;;;;4933532;29;20055;-66
2023/04/22 07:14:09;;;;;;;18.75;15.35;;;12.10;99.90;;;;;;4930984;29;20062;-64
2023/04/22 07:16:34;;;;;;;17.63;15.43;;;12.10;99.90;;;;;;4931816;29;20048;-64
2023/04/22 07:19:00;;;;;;;20.70;16.08;;;12.20;99.90;;;;;;4934228;29;20127;-64
2023/04/22 07:21:26;;;;;;;18.52;14.95;;;12.30;99.90;;;;;;4933290;29;20119;-64
2023/04/22 07:23:51;;;;;;;18.25;15.00;;;12.30;99.90;;;;;;4926832;29;20118;-65
2023/04/22 07:26:17;;;;;;;17.92;15.43;;;12.30;99.90;;;;;;4922145;29;20317;-65
2023/04/22 07:28:43;;;;;;;19.33;15.20;;;12.40;99.90;;;;;;4923546;29;20050;-65
2023/04/22 07:31:09;;;;;;;18.63;15.18;;;12.40;99.90;;;;;;4930088;29;20043;-65
2023/04/22 07:33:35;;;;;;;20.75;16.33;;;12.50;99.90;;;;;;4932365;29;20043;-65
2023/04/22 07:36:00;;;;;;;19.00;15.40;;;12.60;99.90;;;;;;4930491;29;20397;-65
2023/04/22 07:38:26;;;;;;;18.52;15.80;;;12.70;99.90;;;;;;4930619;29;20044;-65
2023/04/22 07:40:51;;;;;;;19.25;15.88;;;12.70;99.90;;;;;;4932360;29;20033;-66
2023/04/22 07:43:17;;;;;;;19.15;15.52;;;12.80;99.90;;;;;;4925698;29;20057;-65
2023/04/22 07:45:43;;;;;;;18.05;14.88;;;12.90;99.90;;;;;;4931123;29;20042;-66
2023/04/22 07:48:08;;;;;;;21.45;17.42;;;13.10;99.90;;;;;;4931140;29;20122;-66
2023/04/22 07:50:34;;;;;;;18.10;15.35;;;13.20;99.90;;;;;;4930451;29;20055;-66
2023/04/22 07:53:00;;;;;;;17.85;15.57;;;13.30;99.90;;;;;;4931349;29;20475;-65
2023/04/22 07:55:25;;;;;;;17.60;15.07;;;13.50;99.90;;;;;;4922678;29;20462;-66
2023/04/22 07:57:51;;;;;;;17.45;14.75;;;13.60;99.90;;;;;;4930401;29;20432;-66
2023/04/22 08:00:16;;;;;;;16.30;13.75;;;13.70;99.90;;;;;;4929145;29;20066;-66
2023/04/22 08:02:42;;;;;;;16.23;14.35;;;13.80;99.90;;;;;;4933590;29;20055;-66
2023/04/22 08:05:09;;;;;;;17.55;14.00;;;14.00;99.90;;;;;;4929884;29;20133;-66
2023/04/22 08:07:34;;;;;;;16.45;13.90;;;14.00;99.90;;;;;;4932615;29;20514;-66
2023/04/22 08:10:00;;;;;;;15.95;13.82;;;14.10;99.90;;;;;;4932873;29;20091;-66
2023/04/22 08:12:25;;;;;;;16.30;13.57;;;14.20;99.90;;;;;;4933597;29;20447;-66
2023/04/22 08:14:51;;;;;;;15.57;13.13;;;14.30;99.90;;;;;;4932519;29;20186;-66
2023/04/22 08:17:20;;;;;;;16.90;13.40;;;14.40;99.90;;;;;;4930166;29;20048;-66
2023/04/22 08:19:47;;;;;;;14.98;12.82;;;14.50;99.90;;;;;;4932810;29;20051;-65
2023/04/22 08:22:13;;;;;;;15.40;13.00;;;14.60;99.90;;;;;;4929288;29;20055;-65
2023/04/22 08:24:39;;;;;;;15.75;13.32;;;14.60;99.90;;;;;;4929414;29;20411;-65
2023/04/22 08:27:04;;;;;;;15.48;13.63;;;14.60;99.90;;;;;;4931379;29;20055;-65
2023/04/22 08:29:30;;;;;;;16.52;13.00;;;14.80;99.90;;;;;;4932694;29;20135;-65
2023/04/22 08:31:55;;;;;;;14.80;11.82;;;15.00;99.90;;;;;;4932849;29;20243;-65
2023/04/22 08:34:21;;;;;;;14.40;11.77;;;15.10;99.90;;;;;;4931909;29;20039;-65
2023/04/22 08:36:47;;;;;;;13.93;11.80;;;15.30;99.90;;;;;;4930944;29;20562;-65
2023/04/22 08:39:12;;;;;;;14.90;11.90;;;15.40;99.90;;;;;;4926772;29;20048;-65
2023/04/22 08:41:38;;;;;;;16.08;12.02;;;15.60;99.90;;;;;;4931165;29;20062;-66
2023/04/22 08:44:04;;;;;;;13.88;11.45;;;15.70;99.90;;;;;;4930502;29;20389;-67
2023/04/22 08:46:30;;;;;;;12.55;10.93;;;15.80;99.90;;;;;;4932477;29;20055;-67
2023/04/22 08:49:02;;;;;;;14.88;10.82;;;15.90;99.90;;;;;;4933668;29;20534;-67
2023/04/22 08:51:30;;;;;;;14.80;11.00;;;15.90;99.90;;;;;;4924319;29;20574;-67
2023/04/22 08:53:56;;;;;;;12.07;10.55;;;15.80;99.90;;;;;;4933443;29;20515;-67
2023/04/22 08:56:24;;;;;;;14.38;11.20;;;15.80;99.90;;;;;;4934916;29;20051;-67
2023/04/22 08:58:50;;;;;;;14.57;10.23;;;16.00;99.90;;;;;;4916153;29;20044;-66
2023/04/22 09:01:16;;;;;;;12.45;10.18;;;16.00;99.90;;;;;;4934662;29;20444;-66
2023/04/22 09:03:42;;;;;;;13.50;11.38;;;16.10;99.90;;;;;;4933796;29;20067;-66
2023/04/22 09:06:13;;;;;;;12.48;9.70;;;16.10;99.90;;;;;;4931712;29;20079;-66
2023/04/22 09:08:39;;;;;;;11.73;9.90;;;16.20;99.90;;;;;;4934501;29;20043;-66
2023/04/22 09:11:04;;;;;;;13.05;9.30;;;16.30;99.90;;;;;;4934514;29;20095;-67
2023/04/22 09:13:30;;;;;;;12.80;10.02;;;16.30;99.90;;;;;;4928889;29;20055;-68
2023/04/22 09:15:55;;;;;;;11.85;9.77;;;16.40;99.90;;;;;;4929079;29;20044;-67
2023/04/22 09:18:21;;;;;;;10.90;9.15;;;16.40;99.90;;;;;;4928937;29;20059;-68
2023/04/22 09:20:48;;;;;;;11.15;9.02;;;16.30;99.90;;;;;;4933266;29;20048;-67
2023/04/22 09:23:13;;;;;;;12.73;9.82;;;16.40;99.90;;;;;;4934163;29;20489;-68
2023/04/22 09:25:40;;;;;;;12.70;9.88;;;16.40;99.90;;;;;;4933758;29;20158;-67
2023/04/22 09:28:11;;;;;;;10.07;8.75;;;16.60;99.90;;;;;;4927981;29;20048;-67
2023/04/22 09:30:36;;;;;;;10.40;8.48;;;16.70;99.90;;;;;;4933033;29;20070;-67
2023/04/22 09:33:06;;;;;;;9.13;8.07;;;16.90;99.90;;;;;;4934520;29;20426;-67
2023/04/22 09:35:39;;;;;;;11.95;8.90;;;17.00;99.90;;;;;;4929277;29;20056;-67
2023/04/22 09:38:07;;;;;;;11.95;8.27;;;17.20;99.90;;;;;;4935385;29;20048;-67
2023/04/22 09:40:34;;;;;;;10.82;8.05;;;17.30;99.90;;;;;;4933310;29;20140;-67
2023/04/22 09:43:02;;;;;;;13.52;9.32;;;17.40;99.90;;;;;;4932733;29;20526;-67
2023/04/22 09:45:31;;;;;;;12.05;8.95;;;17.50;99.90;;;;;;4934309;29;20051;-67
2023/04/22 09:48:01;;;;;;;11.38;9.07;;;17.60;99.90;;;;;;4931867;29;20082;-67
2023/04/22 09:50:27;;;;;;;13.35;9.32;;;17.60;99.90;;;;;;4930317;29;20178;-67
2023/04/22 09:53:04;;;;;;;13.48;9.68;;;17.70;99.90;;;;;;4931495;29;20137;-67
2023/04/22 09:55:33;;;;;;;12.63;10.13;;;17.70;99.90;;;;;;4933006;29;20050;-67
2023/04/22 09:58:10;;;;;;;10.90;9.48;;;17.90;99.90;;;;;;4923741;29;20510;-67
2023/04/22 10:00:49;;;;;;;12.82;9.95;;;17.90;99.90;;;;;;4932694;29;20178;-66
2023/04/22 10:03:15;;;;;;;12.10;9.50;;;18.00;99.90;;;;;;4928376;29;20119;-67
2023/04/22 10:05:43;;;;;;;10.95;9.10;;;18.00;99.90;;;;;;4924359;29;20498;-67
2023/04/22 10:08:09;;;;;;;11.50;9.00;;;18.10;99.90;;;;;;4925957;29;20048;-67
2023/04/22 10:10:36;;;;;;;11.10;8.75;;;18.20;99.90;;;;;;4924763;29;20410;-67
2023/04/22 10:13:03;;;;;;;10.93;8.90;;;18.30;99.90;;;;;;4927408;29;20522;-67
2023/04/22 10:15:39;;;;;;;11.68;8.70;;;18.40;99.90;;;;;;4925807;29;20061;-68
2023/04/22 10:18:09;;;;;;;11.50;8.32;;;18.50;99.90;;;;;;4930460;29;20055;-67
2023/04/22 10:20:37;;;;;;;10.32;8.13;;;18.60;99.90;;;;;;4932907;29;20522;-66
2023/04/22 10:23:04;;;;;;;10.88;7.78;;;18.60;99.90;;;;;;4933079;29;20052;-67
2023/04/22 10:25:30;;;;;;;11.57;8.75;;;18.60;99.90;;;;;;4934189;29;20397;-66
2023/04/22 10:28:08;;;;;;;10.07;8.30;;;18.70;99.90;;;;;;4932258;29;20102;-65
2023/04/22 10:30:36;;;;;;;10.55;8.05;;;18.80;99.90;;;;;;4929934;29;20044;-67
2023/04/22 10:33:20;;;;;;;11.98;9.25;;;18.90;99.90;;;;;;4933996;29;20122;-69
2023/04/22 10:36:07;;;;;;;12.88;8.75;;;19.00;99.90;;;;;;4929991;29;20463;-70
2023/04/22 10:38:37;;;;;;;11.95;8.52;;;19.00;99.90;;;;;;4929394;29;20051;-69
2023/04/22 10:41:04;;;;;;;12.40;8.80;;;19.10;99.90;;;;;;4928499;29;20056;-68
2023/04/22 10:43:46;;;;;;;12.27;8.07;;;19.20;99.90;;;;;;4922208;29;20488;-68
2023/04/22 10:46:31;;;;;;;11.25;8.10;;;19.20;99.90;;;;;;4910242;29;20051;-69
2023/04/22 10:49:07;;;;;;;10.98;8.13;;;19.30;99.90;;;;;;4931984;29;20150;-70
2023/04/22 10:51:45;;;;;;;9.93;7.60;;;19.30;99.90;;;;;;4927061;29;20411;-68
2023/04/22 10:54:35;;;;;;;12.05;8.68;;;19.50;99.90;;;;;;4932896;29;20047;-66
2023/04/22 10:57:06;;;;;;;9.65;8.13;;;19.60;99.90;;;;;;4932403;29;20075;-68
2023/04/22 10:59:40;;;;;;;11.20;8.13;;;19.70;99.90;;;;;;4932585;29;20047;-68
2023/04/22 11:02:07;;;;;;;10.23;7.80;;;19.80;99.90;;;;;;4929414;29;20616;-67
2023/04/22 11:04:33;;;;;;;11.32;7.78;;;19.80;99.90;;;;;;4931104;29;20526;-65
2023/04/22 11:07:19;;;;;;;10.43;7.55;;;19.80;99.90;;;;;;4929805;29;20135;-67
2023/04/22 11:09:48;;;;;;;10.38;8.30;;;19.90;99.90;;;;;;4929212;29;20154;-67
2023/04/22 11:12:38;;;;;;;9.30;7.38;;;19.90;99.90;;;;;;4933881;29;20055;-67
2023/04/22 11:15:05;;;;;;;11.07;8.20;;;19.80;99.90;;;;;;4930029;29;20052;-67
2023/04/22 11:17:31;;;;;;;8.98;7.40;;;19.80;99.90;;;;;;4930475;29;20070;-66
2023/04/22 11:19:57;;;;;;;10.57;7.45;;;19.80;99.90;;;;;;4933093;29;20524;-66
2023/04/22 11:22:23;;;;;;;8.88;7.30;;;19.80;99.90;;;;;;4930935;29;20040;-66
2023/04/22 11:24:56;;;;;;;9.45;8.05;;;19.90;99.90;;;;;;4932498;29;20160;-66
2023/04/22 11:27:25;;;;;;;9.43;7.30;;;19.80;99.90;;;;;;4933373;29;20055;-65
2023/04/22 11:30:11;;;;;;;9.27;7.10;;;19.80;99.90;;;;;;4932827;29;20044;-66
2023/04/22 11:32:51;;;;;;;10.07;7.22;;;19.60;99.90;;;;;;4931470;29;20039;-66
2023/04/22 11:35:23;;;;;;;9.30;6.85;;;19.50;99.90;;;;;;4932676;29;20090;-66
2023/04/22 11:37:54;;;;;;;8.32;6.60;;;19.40;99.90;;;;;;4931902;29;20467;-66
2023/04/22 11:40:25;;;;;;;10.13;6.80;;;19.50;99.90;;;;;;4923363;29;20099;-65
2023/04/22 11:42:51;;;;;;;10.75;8.02;;;19.60;99.90;;;;;;4931593;29;20051;-66
2023/04/22 11:45:17;;;;;;;11.07;7.53;;;19.60;99.90;;;;;;4930253;29;20109;-66
2023/04/22 11:47:45;;;;;;;9.50;7.65;;;19.80;99.90;;;;;;4926809;29;20044;-66
2023/04/22 11:50:12;;;;;;;9.98;8.15;;;19.70;99.90;;;;;;4929989;29;20099;-67
2023/04/22 11:52:53;;;;;;;11.27;8.35;;;19.90;99.90;;;;;;4932723;29;20138;-67
2023/04/22 11:55:31;;;;;;;10.00;8.43;;;20.00;99.90;;;;;;4931840;29;20059;-66
2023/04/22 11:58:08;;;;;;;10.00;8.60;;;20.30;99.90;;;;;;4930384;29;20043;-65
2023/04/22 12:00:36;;;;;;;11.10;7.75;;;20.50;99.90;;;;;;4924867;29;20118;-65
2023/04/22 12:03:11;;;;;;;9.82;7.75;;;20.70;99.90;;;;;;4930515;29;20040;-66
2023/04/22 12:05:41;;;;;;;10.27;7.32;;;20.90;99.90;;;;;;4914002;29;20090;-66
2023/04/22 12:08:18;;;;;;;9.68;7.65;;;21.10;99.90;;;;;;4931117;29;20052;-66
2023/04/22 12:10:51;;;;;;;9.32;7.07;;;21.30;99.90;;;;;;4931846;29;20361;-66
2023/04/22 12:13:22;;;;;;;9.48;7.18;;;21.40;99.90;;;;;;4932997;29;20096;-66
2023/04/22 12:15:52;;;;;;;8.73;7.55;;;21.50;99.90;;;;;;4932658;29;20048;-66
2023/04/22 12:18:37;;;;;;;8.77;7.10;;;21.40;99.90;;;;;;4928931;29;20048;-66
2023/04/22 12:21:14;;;;;;;8.98;7.13;;;21.30;99.90;;;;;;4928820;29;20505;-67
2023/04/22 12:24:03;;;;;;;8.27;7.18;;;21.30;99.90;;;;;;4936310;29;20079;-65
2023/04/22 12:26:29;;;;;;;9.75;6.63;;;21.10;99.90;;;;;;4934880;29;20039;-65
2023/04/22 12:28:57;;;;;;;8.32;6.03;;;21.00;99.90;;;;;;4936976;29;20114;-66
2023/04/22 12:31:22;;;;;;;7.22;5.25;;;21.00;99.90;;;;;;4931438;29;20399;-66
2023/04/22 12:33:48;;;;;;;9.23;4.85;;;21.10;99.90;;;;;;4933709;29;20047;-63
2023/04/22 12:36:14;;;;;;;8.13;4.65;;;21.20;99.90;;;;;;4934566;29;20086;-63
2023/04/22 12:38:40;;;;;;;6.72;5.03;;;21.40;99.90;;;;;;4933997;29;20474;-62
2023/04/22 12:41:06;;;;;;;6.97;4.85;;;21.40;99.90;;;;;;4928598;29;20052;-63